Time;durP1;ratioP1;P1;durP2;ratioP2;P2;SDS_P1;SDS_P2;PMS_P1;PMS_P2;Temp;Humidity;BMP_temperature;BMP_pressure;BME280_temperature;BME280_humidity;BME280_pressure;Samples;Min_cycle;Max_cycle;Signal;HPM_P1;HPM_P2
2022/07/05 00:01:35;;;;;;;1.65;0.60;;;;;;;16.11;84.31;102122.91;5013907;28;20121;-29
2022/07/05 00:04:03;;;;;;;1.88;0.80;;;;;;;16.07;84.01;102119.03;5014710;28;20061;-27
2022/07/05 00:06:31;;;;;;;3.00;0.63;;;;;;;16.05;84.06;102112.84;5014761;28;20045;-27
2022/07/05 00:08:58;;;;;;;2.20;0.60;;;;;;;16.03;83.99;102123.59;5013809;28;20062;-33
2022/07/05 00:11:28;;;;;;;1.83;0.60;;;;;;;16.01;83.81;102125.88;5014105;28;20041;-31
2022/07/05 00:13:55;;;;;;;2.95;0.80;;;;;;;16.01;83.75;102117.41;5013899;28;20125;-31
2022/07/05 00:16:23;;;;;;;2.10;0.70;;;;;;;16.01;83.93;102123.06;5014032;28;20487;-27
2022/07/05 00:18:51;;;;;;;3.33;0.75;;;;;;;16.04;83.71;102125.25;5014449;28;20042;-30
2022/07/05 00:21:19;;;;;;;2.33;0.60;;;;;;;16.05;83.67;102128.91;5013103;28;20054;-28
2022/07/05 00:23:47;;;;;;;2.10;0.57;;;;;;;16.04;83.24;102125.25;5014301;28;20057;-28
2022/07/05 00:26:15;;;;;;;1.52;0.60;;;;;;;16.02;82.83;102121.91;5014240;28;20046;-30
2022/07/05 00:28:44;;;;;;;1.70;0.50;;;;;;;16.02;82.93;102126.69;5013473;28;20477;-28
2022/07/05 00:31:11;;;;;;;3.22;0.70;;;;;;;16.00;82.97;102124.19;5014052;28;20046;-33
2022/07/05 00:33:39;;;;;;;2.80;0.80;;;;;;;16.00;82.93;102123.34;5014182;28;20061;-32
2022/07/05 00:36:08;;;;;;;1.73;0.60;;;;;;;15.99;83.11;102124.50;5006290;28;20058;-29
2022/07/05 00:38:35;;;;;;;2.33;0.70;;;;;;;15.98;83.03;102120.88;5013838;28;20620;-35
2022/07/05 00:41:03;;;;;;;2.15;0.60;;;;;;;15.95;82.65;102118.66;5013858;28;20084;-29
2022/07/05 00:43:31;;;;;;;1.23;0.52;;;;;;;15.92;82.51;102124.91;5013392;28;20050;-29
2022/07/05 00:46:00;;;;;;;3.00;0.65;;;;;;;15.90;82.26;102115.91;5027442;28;20455;-30
2022/07/05 00:48:29;;;;;;;2.70;1.10;;;;;;;15.89;82.22;102119.88;5013893;28;20053;-35
2022/07/05 00:50:56;;;;;;;2.17;0.50;;;;;;;15.85;81.95;102122.44;5012888;28;20484;-32
2022/07/05 00:53:24;;;;;;;2.00;0.52;;;;;;;15.82;81.38;102119.41;5013703;28;20084;-28
2022/07/05 00:55:52;;;;;;;2.40;0.60;;;;;;;15.80;80.87;102118.88;5011983;28;20502;-30
2022/07/05 00:58:20;;;;;;;1.70;0.40;;;;;;;15.78;80.99;102112.72;5012531;28;20074;-34
2022/07/05 01:00:48;;;;;;;1.45;0.50;;;;;;;15.77;80.87;102113.88;5013551;28;20081;-29
2022/07/05 01:03:17;;;;;;;1.73;0.50;;;;;;;15.77;80.98;102116.69;5012440;28;20462;-28
2022/07/05 01:05:45;;;;;;;1.88;0.55;;;;;;;15.78;81.17;102121.19;5008838;28;20062;-32
2022/07/05 01:08:14;;;;;;;2.22;0.65;;;;;;;15.76;80.94;102117.81;5011519;28;20160;-36
2022/07/05 01:10:42;;;;;;;2.70;0.50;;;;;;;15.74;80.90;102128.53;5012854;28;20054;-28
2022/07/05 01:13:10;;;;;;;0.85;0.32;;;;;;;15.74;81.14;102123.75;5011720;28;20417;-33
2022/07/05 01:15:40;;;;;;;1.85;0.60;;;;;;;15.72;81.42;102116.75;5013670;28;20049;-35
2022/07/05 01:18:08;;;;;;;3.50;0.60;;;;;;;15.70;81.65;102117.06;5010571;28;20467;-29
2022/07/05 01:20:38;;;;;;;2.45;0.82;;;;;;;15.70;81.96;102116.22;5013451;28;20048;-31
2022/07/05 01:23:07;;;;;;;1.90;0.60;;;;;;;15.69;82.72;102121.00;5012959;28;20175;-30
2022/07/05 01:25:35;;;;;;;3.20;0.75;;;;;;;15.68;82.58;102113.69;5012689;28;20100;-40
2022/07/05 01:28:05;;;;;;;2.42;0.60;;;;;;;15.68;82.34;102116.50;5012807;28;20121;-29
2022/07/05 01:30:35;;;;;;;3.20;0.60;;;;;;;15.68;82.69;102118.50;5012982;28;20049;-29
2022/07/05 01:33:06;;;;;;;1.67;0.68;;;;;;;15.68;82.71;102118.50;5005179;28;20096;-31
2022/07/05 01:35:35;;;;;;;2.40;0.65;;;;;;;15.68;83.96;102127.78;5008547;28;20106;-30
2022/07/05 01:38:04;;;;;;;3.30;0.88;;;;;;;15.69;85.33;102117.34;5002607;28;20073;-29
2022/07/05 01:40:33;;;;;;;3.50;0.60;;;;;;;15.72;85.96;102116.75;5010551;28;20046;-31
2022/07/05 01:43:01;;;;;;;2.30;0.60;;;;;;;15.74;86.64;102118.13;5025090;28;20572;-34
2022/07/05 01:45:41;;;;;;;3.20;0.70;;;;;;;15.73;87.16;102108.00;5016210;28;20423;-32
2022/07/05 01:48:12;;;;;;;2.80;0.80;;;;;;;15.72;87.42;102113.94;5010508;28;20483;-32
2022/07/05 01:50:45;;;;;;;3.42;0.70;;;;;;;15.71;88.08;102107.47;5007990;28;20543;-31
2022/07/05 01:53:17;;;;;;;2.58;0.65;;;;;;;15.70;88.55;102110.59;5010623;28;20049;-36
2022/07/05 01:55:47;;;;;;;;;;;;;;;15.65;89.61;102110.66;4995992;28;20042;-30
2022/07/05 01:58:16;;;;;;;2.80;0.70;;;;;;;15.62;89.64;102111.25;4995996;28;19963;-36
2022/07/05 02:00:45;;;;;;;2.35;0.60;;;;;;;15.64;89.60;102115.44;5011743;28;20046;-33
2022/07/05 02:03:15;;;;;;;1.58;0.57;;;;;;;15.65;89.75;102110.66;5012345;28;20100;-41
2022/07/05 02:05:55;;;;;;;3.08;0.70;;;;;;;15.63;89.43;102121.38;5023408;28;20052;-32
2022/07/05 02:08:29;;;;;;;3.65;0.60;;;;;;;15.61;89.06;102118.84;5005540;28;20088;-33
2022/07/05 02:10:59;;;;;;;3.85;0.75;;;;;;;15.61;89.31;102115.19;5011493;28;20463;-29
2022/07/05 02:13:27;;;;;;;2.88;0.85;;;;;;;15.63;89.57;102110.13;5010193;28;20050;-34
2022/07/05 02:15:55;;;;;;;2.38;0.60;;;;;;;15.63;89.70;102110.94;5010661;28;20053;-34
2022/07/05 02:18:25;;;;;;;1.67;0.60;;;;;;;15.65;89.88;102105.84;5010640;28;20084;-31
2022/07/05 02:20:55;;;;;;;2.13;0.68;;;;;;;15.66;90.21;102107.53;5009853;28;20056;-32
2022/07/05 02:23:23;;;;;;;2.58;0.70;;;;;;;15.67;90.41;102114.00;5012166;28;20056;-29
2022/07/05 02:25:52;;;;;;;4.07;0.70;;;;;;;15.64;90.27;102114.59;4996549;28;20533;-29
2022/07/05 02:28:21;;;;;;;3.58;0.65;;;;;;;15.61;89.82;102106.75;5007731;28;20079;-31
2022/07/05 02:30:51;;;;;;;2.50;0.50;;;;;;;15.58;89.59;102113.03;4998475;28;20054;-29
2022/07/05 02:33:19;;;;;;;3.17;0.75;;;;;;;15.56;89.85;102110.50;5006640;28;20070;-30
2022/07/05 02:35:49;;;;;;;2.15;0.50;;;;;;;15.56;90.00;102113.31;4999289;28;20534;-31
2022/07/05 02:38:16;;;;;;;4.15;0.70;;;;;;;15.56;89.62;102118.09;5006163;28;20149;-35
2022/07/05 02:40:44;;;;;;;2.10;0.50;;;;;;;15.56;89.19;102112.47;5011455;28;20041;-29
2022/07/05 02:43:13;;;;;;;3.90;0.73;;;;;;;15.56;88.95;102120.94;5009851;28;20042;-29
2022/07/05 02:45:42;;;;;;;1.73;0.40;;;;;;;15.55;88.84;102117.25;5001266;28;20129;-33
2022/07/05 02:48:10;;;;;;;4.93;0.70;;;;;;;15.55;89.39;102116.41;5002707;28;20049;-33
2022/07/05 02:50:38;;;;;;;1.67;0.50;;;;;;;15.53;89.36;102116.69;5009241;28;20045;-30
2022/07/05 02:53:07;;;;;;;5.28;0.50;;;;;;;15.51;89.06;102113.34;5010441;28;20052;-29
2022/07/05 02:55:36;;;;;;;2.28;0.55;;;;;;;15.50;89.08;102120.13;5009364;28;20435;-31
2022/07/05 02:58:05;;;;;;;2.00;0.60;;;;;;;15.51;89.49;102116.16;5011726;28;20049;-29
2022/07/05 03:00:33;;;;;;;3.70;0.60;;;;;;;15.51;89.65;102117.00;5011226;28;20073;-29
2022/07/05 03:03:03;;;;;;;3.13;0.57;;;;;;;15.49;89.80;102122.09;5002893;28;20493;-34
2022/07/05 03:05:32;;;;;;;3.15;0.68;;;;;;;15.49;90.16;102121.25;4996126;28;20144;-34
2022/07/05 03:08:04;;;;;;;3.47;0.60;;;;;;;15.48;90.19;102123.22;5026472;28;20045;-30
2022/07/05 03:10:35;;;;;;;2.30;0.60;;;;;;;15.47;90.52;102123.53;5009486;28;20072;-34
2022/07/05 03:13:05;;;;;;;3.75;1.02;;;;;;;15.46;90.51;102125.50;4997587;28;20407;-36
2022/07/05 03:15:33;;;;;;;2.08;0.40;;;;;;;15.46;90.39;102133.09;5009825;28;20128;-29
2022/07/05 03:18:04;;;;;;;2.83;0.60;;;;;;;15.46;90.09;102125.50;5009063;28;20065;-34
2022/07/05 03:20:33;;;;;;;3.25;0.60;;;;;;;15.45;90.10;102131.44;5013568;28;20053;-36
2022/07/05 03:23:02;;;;;;;2.85;0.70;;;;;;;15.45;90.21;102134.25;5002147;28;20061;-36
2022/07/05 03:25:38;;;;;;;3.40;0.70;;;;;;;15.44;90.44;102129.75;5011487;28;20393;-34
2022/07/05 03:28:07;;;;;;;3.85;0.75;;;;;;;15.43;90.52;102134.53;5005854;28;20089;-29
2022/07/05 03:30:35;;;;;;;3.28;0.60;;;;;;;15.42;90.59;102132.88;4993715;28;20089;-29
2022/07/05 03:33:05;;;;;;;1.77;0.50;;;;;;;15.41;90.33;102133.16;5010642;28;20141;-32
2022/07/05 03:35:34;;;;;;;2.80;0.60;;;;;;;15.40;90.35;102137.09;5012175;28;20491;-31
2022/07/05 03:38:02;;;;;;;3.38;0.60;;;;;;;15.37;90.28;102135.75;5002911;28;20125;-30
2022/07/05 03:40:30;;;;;;;3.97;0.80;;;;;;;15.37;90.33;102141.38;5014456;28;20088;-29
2022/07/05 03:42:58;;;;;;;3.58;0.70;;;;;;;15.39;90.56;102133.47;5002893;28;20503;-28
2022/07/05 03:45:30;;;;;;;3.92;0.70;;;;;;;15.40;90.69;102134.28;5006770;28;20571;-29
2022/07/05 03:47:59;;;;;;;2.55;0.60;;;;;;;15.39;91.03;102141.91;5014596;28;20403;-29
2022/07/05 03:50:49;;;;;;;2.95;0.55;;;;;;;15.40;91.53;102123.03;5010354;28;20105;-31
2022/07/05 03:53:17;;;;;;;1.00;0.40;;;;;;;15.38;91.46;102131.81;5008364;28;20063;-29
2022/07/05 03:55:45;;;;;;;2.08;0.40;;;;;;;15.39;91.51;102133.47;5010317;28;20126;-32
2022/07/05 03:58:14;;;;;;;2.38;0.47;;;;;;;15.40;91.77;102139.91;5007306;28;20136;-29
2022/07/05 04:00:42;;;;;;;2.38;0.55;;;;;;;15.40;91.75;102134.28;5009126;28;20547;-29
2022/07/05 04:03:14;;;;;;;2.33;0.68;;;;;;;15.38;91.57;102133.78;5005931;28;20041;-29
2022/07/05 04:05:44;;;;;;;3.20;0.52;;;;;;;15.36;91.48;102134.09;5013572;28;20137;-30
2022/07/05 04:08:13;;;;;;;3.53;0.60;;;;;;;15.38;91.82;102139.41;5012152;28;20054;-35
2022/07/05 04:10:45;;;;;;;3.30;0.80;;;;;;;15.39;92.33;102138.25;5002784;28;20073;-31
2022/07/05 04:13:16;;;;;;;2.13;0.68;;;;;;;15.40;92.46;102140.75;5012082;28;20562;-34
2022/07/05 04:15:45;;;;;;;3.67;0.73;;;;;;;15.41;92.80;102142.44;5013318;28;20065;-31
2022/07/05 04:18:13;;;;;;;2.08;0.50;;;;;;;15.42;92.96;102146.94;5014247;28;20116;-31
2022/07/05 04:20:42;;;;;;;2.50;0.70;;;;;;;15.42;93.13;102143.28;5012290;28;20459;-31
2022/07/05 04:23:14;;;;;;;5.30;0.80;;;;;;;15.44;93.31;102152.25;5008584;28;20074;-28
2022/07/05 04:25:42;;;;;;;4.97;0.60;;;;;;;15.45;93.43;102157.59;5011551;28;20045;-36
2022/07/05 04:28:45;;;;;;;3.25;0.82;;;;;;;15.43;93.68;102154.22;5006512;28;20052;-30
2022/07/05 04:31:19;;;;;;;1.90;0.50;;;;;;;15.44;93.27;102147.47;5012181;28;20058;-30
2022/07/05 04:33:50;;;;;;;3.08;0.60;;;;;;;15.44;92.98;102150.28;5012555;28;20065;-33
2022/07/05 04:36:22;;;;;;;2.25;0.60;;;;;;;15.45;93.09;102151.97;5012228;28;20073;-32
2022/07/05 04:38:54;;;;;;;3.65;0.70;;;;;;;15.46;92.80;102148.00;5012251;28;20072;-30
2022/07/05 04:41:24;;;;;;;3.42;0.98;;;;;;;15.46;92.37;102150.81;5013354;28;20566;-30
2022/07/05 04:43:53;;;;;;;2.55;0.60;;;;;;;15.47;91.98;102149.69;5008450;28;20097;-29
2022/07/05 04:46:21;;;;;;;2.45;0.50;;;;;;;15.49;91.75;102155.84;5026487;28;20081;-29
2022/07/05 04:48:51;;;;;;;4.07;0.50;;;;;;;15.54;91.50;102154.13;5010404;28;20045;-29
2022/07/05 04:51:19;;;;;;;2.28;0.57;;;;;;;15.56;91.72;102154.69;5011875;28;20057;-31
2022/07/05 04:53:47;;;;;;;3.03;0.65;;;;;;;15.59;91.58;102154.09;5012241;28;20054;-35
2022/07/05 04:56:17;;;;;;;3.13;0.45;;;;;;;15.61;91.54;102157.41;5012669;28;20049;-34
2022/07/05 04:58:45;;;;;;;2.33;0.50;;;;;;;15.62;91.33;102171.19;5013428;28;20053;-28
2022/07/05 05:01:13;;;;;;;2.28;0.40;;;;;;;15.65;91.16;102164.94;5011799;28;20079;-31
2022/07/05 05:03:41;;;;;;;1.63;0.50;;;;;;;15.69;91.56;102166.03;5012003;28;20061;-29
2022/07/05 05:06:08;;;;;;;2.88;0.75;;;;;;;15.72;91.38;102170.22;5012304;28;20048;-30
2022/07/05 05:08:36;;;;;;;2.03;0.57;;;;;;;15.74;91.11;102171.59;5012679;28;20132;-29
2022/07/05 05:11:05;;;;;;;2.75;0.60;;;;;;;15.75;90.93;102166.81;5011188;28;20128;-31
2022/07/05 05:13:34;;;;;;;1.58;0.52;;;;;;;15.79;90.69;102176.28;5007161;28;20455;-28
2022/07/05 05:16:02;;;;;;;3.70;0.60;;;;;;;15.83;90.74;102181.03;5008032;28;20072;-30
2022/07/05 05:18:30;;;;;;;3.67;0.80;;;;;;;15.88;90.71;102180.13;5010338;28;20495;-28
2022/07/05 05:20:58;;;;;;;1.80;0.50;;;;;;;15.94;90.51;102183.72;5011830;28;20144;-31
2022/07/05 05:23:26;;;;;;;3.97;0.70;;;;;;;15.97;90.66;102183.94;5011138;28;20042;-29
2022/07/05 05:25:53;;;;;;;1.50;0.40;;;;;;;16.03;90.80;102185.53;5011344;28;20061;-28
2022/07/05 05:28:21;;;;;;;2.08;0.40;;;;;;;16.09;91.00;102189.13;5012413;28;20069;-29
2022/07/05 05:30:51;;;;;;;6.05;0.70;;;;;;;16.16;90.94;102195.22;5010756;28;20134;-30
2022/07/05 05:33:18;;;;;;;4.30;0.60;;;;;;;16.22;90.83;102193.97;5012035;28;20076;-28
2022/07/05 05:35:54;;;;;;;3.88;0.70;;;;;;;16.26;90.58;102191.41;5011728;28;20054;-31
2022/07/05 05:38:21;;;;;;;3.13;0.57;;;;;;;16.30;90.00;102198.94;5009475;28;20050;-29
2022/07/05 05:40:49;;;;;;;2.22;0.50;;;;;;;16.35;89.63;102198.03;5011465;28;20072;-30
2022/07/05 05:43:17;;;;;;;2.50;0.60;;;;;;;16.40;89.86;102192.28;5010841;28;20120;-34
2022/07/05 05:45:45;;;;;;;4.07;0.70;;;;;;;16.46;89.70;102202.34;5010897;28;20054;-34
2022/07/05 05:48:14;;;;;;;2.20;0.50;;;;;;;16.53;89.38;102206.47;5011854;28;20051;-30
2022/07/05 05:50:42;;;;;;;2.47;0.50;;;;;;;16.61;89.24;102204.06;5011304;28;20124;-32
2022/07/05 05:53:10;;;;;;;2.15;0.47;;;;;;;16.73;89.12;102213.78;5010599;28;20373;-30
2022/07/05 05:55:37;;;;;;;3.45;0.70;;;;;;;16.84;88.52;102215.25;5011560;28;20054;-31
2022/07/05 05:58:13;;;;;;;2.53;0.60;;;;;;;16.99;88.27;102218.94;5010155;28;20132;-36
2022/07/05 06:00:41;;;;;;;4.25;0.80;;;;;;;17.08;88.12;102214.28;5010197;28;20046;-30
2022/07/05 06:03:09;;;;;;;2.97;0.63;;;;;;;17.19;87.29;102219.41;5008955;28;20054;-30
2022/07/05 06:05:38;;;;;;;3.72;0.77;;;;;;;17.28;86.50;102207.41;5011364;28;20108;-36
2022/07/05 06:08:06;;;;;;;1.60;0.40;;;;;;;17.35;86.26;102208.69;5011201;28;20535;-30
2022/07/05 06:10:35;;;;;;;2.05;0.50;;;;;;;17.40;85.51;102213.38;5012400;28;20145;-31
2022/07/05 06:13:06;;;;;;;3.70;0.80;;;;;;;17.44;85.46;102218.09;5011220;28;20124;-32
2022/07/05 06:15:34;;;;;;;3.85;0.60;;;;;;;17.43;84.23;102222.06;5012413;28;20080;-34
2022/07/05 06:18:02;;;;;;;4.15;0.68;;;;;;;17.45;84.62;102225.41;5011677;28;20450;-30
2022/07/05 06:20:32;;;;;;;2.75;0.65;;;;;;;17.54;84.93;102219.88;5011321;28;20495;-29
2022/07/05 06:23:03;;;;;;;3.17;0.80;;;;;;;17.62;84.35;102219.13;5011577;28;20046;-32
2022/07/05 06:25:31;;;;;;;1.75;0.50;;;;;;;17.76;84.40;102224.81;5011763;28;20392;-37
2022/07/05 06:28:02;;;;;;;2.90;0.57;;;;;;;17.93;83.93;102225.00;5010039;28;20060;-30
2022/07/05 06:30:31;;;;;;;3.58;0.82;;;;;;;18.06;82.31;102224.16;5009933;28;20064;-30
2022/07/05 06:32:59;;;;;;;2.40;0.60;;;;;;;18.23;81.20;102212.16;5009909;28;20069;-31
2022/07/05 06:35:28;;;;;;;3.17;0.90;;;;;;;18.46;80.24;102210.22;5011216;28;20046;-32
2022/07/05 06:38:01;;;;;;;3.33;0.63;;;;;;;18.72;77.76;102210.47;5011530;28;20057;-34
2022/07/05 06:40:29;;;;;;;3.05;0.68;;;;;;;19.06;77.13;102210.69;5011182;28;20054;-31
2022/07/05 06:42:59;;;;;;;2.75;0.80;;;;;;;19.48;75.06;102216.88;5010787;28;20046;-30
2022/07/05 06:45:38;;;;;;;2.17;0.60;;;;;;;20.00;73.67;102220.75;5008759;28;20100;-30
2022/07/05 06:48:08;;;;;;;3.65;0.65;;;;;;;20.50;71.11;102220.34;5011040;28;20049;-33
2022/07/05 06:50:38;;;;;;;3.15;0.70;;;;;;;20.89;69.72;102224.97;5011574;28;20052;-37
2022/07/05 06:53:08;;;;;;;4.32;0.70;;;;;;;21.34;67.59;102233.94;5011300;28;20499;-32
2022/07/05 06:55:36;;;;;;;2.83;0.70;;;;;;;21.88;65.70;102237.84;5010434;28;20494;-34
2022/07/05 06:58:05;;;;;;;1.88;0.45;;;;;;;22.36;62.99;102235.75;5011746;28;20045;-31
2022/07/05 07:00:41;;;;;;;1.85;0.47;;;;;;;22.57;61.70;102239.44;5011256;28;20042;-30
2022/07/05 07:03:29;;;;;;;3.65;0.70;;;;;;;22.95;59.67;102239.28;5010762;28;20056;-33
2022/07/05 07:06:17;;;;;;;2.58;0.70;;;;;;;23.55;58.84;102235.78;5011541;28;20053;-34
2022/07/05 07:11:31;;;;;;;6.20;0.80;;;;;;;24.45;55.08;102233.84;5009870;28;20425;-36
2022/07/05 07:13:59;;;;;;;2.72;0.75;;;;;;;24.66;53.92;102226.75;5011303;28;20049;-33
2022/07/05 07:16:27;;;;;;;4.63;0.60;;;;;;;24.89;53.03;102243.31;5010567;28;20166;-31
2022/07/05 07:18:55;;;;;;;3.38;0.70;;;;;;;25.30;53.24;102239.19;5011571;28;20053;-30
2022/07/05 07:21:42;;;;;;;3.78;0.80;;;;;;;25.84;51.59;102238.59;5008223;28;20461;-30
2022/07/05 07:24:12;;;;;;;4.68;0.82;;;;;;;26.37;48.85;102239.94;5010539;28;20046;-35
2022/07/05 07:27:03;;;;;;;3.25;0.50;;;;;;;26.83;47.61;102246.66;5010154;28;20053;-36
2022/07/05 07:29:31;;;;;;;3.60;0.73;;;;;;;27.15;45.92;102243.66;5011174;28;20046;-39
2022/07/05 07:32:00;;;;;;;3.90;0.73;;;;;;;27.33;44.79;102236.22;5010639;28;20061;-33
2022/07/05 07:34:29;;;;;;;2.80;0.60;;;;;;;27.60;44.89;102237.13;5011298;28;20045;-37
2022/07/05 07:36:57;;;;;;;3.85;0.70;;;;;;;28.06;44.85;102237.91;5010361;28;20567;-32
2022/07/05 07:39:27;;;;;;;1.90;0.50;;;;;;;28.25;42.36;102240.69;5011114;28;20073;-31
2022/07/05 07:41:54;;;;;;;2.60;0.60;;;;;;;28.10;42.64;102245.38;5011253;28;20119;-37
2022/07/05 07:44:22;;;;;;;3.08;0.70;;;;;;;28.19;42.19;102247.13;5010548;28;20136;-39
2022/07/05 07:46:50;;;;;;;2.25;0.60;;;;;;;28.17;42.49;102253.28;5010999;28;20507;-32
2022/07/05 07:49:18;;;;;;;2.80;0.80;;;;;;;28.60;41.87;102245.28;4991669;28;20457;-38
2022/07/05 07:51:46;;;;;;;2.78;0.70;;;;;;;28.88;40.15;102248.56;5008703;28;20062;-34
2022/07/05 07:54:14;;;;;;;2.83;0.70;;;;;;;28.86;39.77;102253.88;5011320;28;20065;-34
2022/07/05 07:56:43;;;;;;;3.40;0.80;;;;;;;29.02;39.20;102251.63;5010834;28;20128;-35
2022/07/05 07:59:11;;;;;;;4.22;0.80;;;;;;;29.02;39.28;102247.91;5010478;28;20054;-33
2022/07/05 08:01:39;;;;;;;4.05;1.00;;;;;;;28.96;39.95;102255.25;5010771;28;20096;-39
2022/07/05 08:04:12;;;;;;;3.38;0.80;;;;;;;28.92;39.03;102257.25;5011331;28;20104;-33
2022/07/05 08:06:41;;;;;;;2.83;0.70;;;;;;;28.95;39.97;102263.03;5012320;28;20054;-32
2022/07/05 08:09:09;;;;;;;4.10;0.75;;;;;;;29.07;39.25;102262.78;5015022;28;20501;-36
2022/07/05 08:11:45;;;;;;;3.22;0.70;;;;;;;29.01;39.06;102267.22;5014391;28;20413;-36
2022/07/05 08:14:13;;;;;;;2.85;0.63;;;;;;;29.13;39.34;102266.13;5013624;28;20505;-38
2022/07/05 08:16:40;;;;;;;3.63;0.70;;;;;;;29.26;38.61;102264.63;5014005;28;20137;-31
2022/07/05 08:22:02;;;;;;;2.58;0.60;;;;;;;29.69;38.00;102265.09;5014207;28;20070;-34
2022/07/05 08:24:30;;;;;;;3.08;0.70;;;;;;;29.78;37.69;102262.69;5014584;28;20046;-40
2022/07/05 08:26:59;;;;;;;2.88;0.70;;;;;;;29.79;37.35;102262.31;5013053;28;20053;-33
2022/07/05 08:29:27;;;;;;;3.53;0.90;;;;;;;29.85;37.44;102261.94;5014171;28;20544;-39
2022/07/05 08:31:55;;;;;;;2.50;0.70;;;;;;;29.89;37.08;102263.63;5013803;28;20104;-31
2022/07/05 08:34:23;;;;;;;2.10;0.60;;;;;;;29.72;37.40;102270.06;5013566;28;20046;-33
2022/07/05 08:36:51;;;;;;;5.30;0.75;;;;;;;29.32;37.27;102271.69;5013839;28;20061;-36
2022/07/05 08:39:19;;;;;;;3.22;0.60;;;;;;;29.24;37.59;102278.56;5014047;28;20494;-37
2022/07/05 08:41:49;;;;;;;4.10;0.60;;;;;;;29.23;36.66;102281.84;5012927;28;20056;-35
2022/07/05 08:44:21;;;;;;;2.45;0.60;;;;;;;29.27;37.17;102282.72;5013403;28;20040;-31
2022/07/05 08:46:52;;;;;;;2.95;0.60;;;;;;;29.41;36.75;102283.72;5013879;28;20116;-41
2022/07/05 08:49:23;;;;;;;3.65;0.70;;;;;;;29.33;37.46;102284.03;5012777;28;20403;-32
2022/07/05 08:51:51;;;;;;;5.25;0.93;;;;;;;29.61;37.63;102284.34;5013644;28;20423;-31
2022/07/05 08:54:19;;;;;;;3.22;0.60;;;;;;;29.97;37.39;102281.81;5012717;28;20050;-34
2022/07/05 08:56:48;;;;;;;4.63;0.70;;;;;;;30.17;36.76;102274.59;5013757;28;20046;-31
2022/07/05 08:59:37;;;;;;;1.95;0.70;;;;;;;30.03;37.06;102280.22;5013319;28;20046;-35
2022/07/05 09:02:06;;;;;;;2.60;0.80;;;;;;;30.03;36.17;102285.97;5012633;28;20088;-31
2022/07/05 09:04:38;;;;;;;2.83;0.65;;;;;;;29.95;36.12;102282.19;5013254;28;20045;-37
2022/07/05 09:07:07;;;;;;;3.85;1.00;;;;;;;30.17;36.88;102288.16;5013528;28;20128;-32
2022/07/05 09:09:42;;;;;;;21.25;1.70;;;;;;;30.32;36.75;102302.25;5012341;28;20507;-35
2022/07/05 09:12:13;;;;;;;2.33;0.70;;;;;;;30.46;36.48;102292.88;4995099;28;20460;-39
2022/07/05 09:14:56;;;;;;;4.53;0.73;;;;;;;30.58;36.50;102306.16;5013082;28;20064;-35
2022/07/05 09:17:26;;;;;;;2.85;0.80;;;;;;;30.58;36.33;102306.16;5012357;28;20137;-39
2022/07/05 09:20:11;;;;;;;2.70;0.80;;;;;;;30.71;35.34;102301.72;5010012;28;20041;-32
2022/07/05 09:22:44;;;;;;;2.63;0.80;;;;;;;30.64;35.77;102299.59;4994796;28;20356;-35
2022/07/05 09:25:17;;;;;;;2.78;0.80;;;;;;;30.46;36.13;102293.72;5012832;28;20177;-35
2022/07/05 09:27:49;;;;;;;2.72;0.70;;;;;;;30.26;36.07;102297.25;5012892;28;20415;-35
2022/07/05 09:30:30;;;;;;;4.28;0.88;;;;;;;29.90;35.83;102290.38;5009113;28;20501;-30
2022/07/05 09:33:08;;;;;;;7.28;1.33;;;;;;;29.78;36.88;102295.19;4995383;28;20138;-36
2022/07/05 09:35:39;;;;;;;4.47;0.88;;;;;;;29.85;37.67;102308.00;5012608;28;20046;-40
2022/07/05 09:38:17;;;;;;;3.28;0.77;;;;;;;30.18;37.50;102307.09;5012137;28;20137;-31
2022/07/05 09:40:49;;;;;;;4.55;0.90;;;;;;;30.30;37.28;102301.84;5010273;28;20056;-36
2022/07/05 09:43:18;;;;;;;3.08;0.70;;;;;;;30.71;37.03;102301.72;5012878;28;20084;-32
2022/07/05 09:45:56;;;;;;;4.03;0.80;;;;;;;31.18;35.42;102315.13;5008872;28;20037;-40
2022/07/05 09:48:25;;;;;;;1.98;0.50;;;;;;;31.04;35.37;102320.81;4994309;28;20046;-31
2022/07/05 09:51:05;;;;;;;2.33;0.63;;;;;;;30.87;35.42;102313.72;5007796;28;20492;-31
2022/07/05 09:53:55;;;;;;;4.60;0.70;;;;;;;30.88;35.71;102312.50;4997018;28;20384;-38
2022/07/05 09:56:29;;;;;;;2.63;0.70;;;;;;;30.96;35.92;102308.44;5012428;28;20108;-31
2022/07/05 09:59:12;;;;;;;1.80;0.70;;;;;;;31.36;34.85;102318.09;5011711;28;20186;-31
2022/07/05 10:01:42;;;;;;;3.50;0.70;;;;;;;31.30;35.59;102325.50;5012495;28;20038;-35
2022/07/05 10:04:10;;;;;;;3.15;0.70;;;;;;;31.20;35.01;102323.38;5012449;28;20049;-32
2022/07/05 10:06:38;;;;;;;2.85;0.80;;;;;;;31.06;35.37;102315.47;5011467;28;20077;-31
2022/07/05 10:09:06;;;;;;;3.50;0.80;;;;;;;30.83;35.47;102319.47;5012403;28;20084;-33
2022/07/05 10:11:36;;;;;;;2.63;0.90;;;;;;;30.74;35.06;102326.84;5008467;28;20509;-32
2022/07/05 10:14:07;;;;;;;2.67;0.60;;;;;;;30.40;34.95;102332.75;5012381;28;20479;-41
2022/07/05 10:16:35;;;;;;;2.90;0.82;;;;;;;29.98;35.75;102341.03;5011235;28;20049;-32
2022/07/05 10:19:09;;;;;;;2.35;0.93;;;;;;;29.65;36.09;102342.75;5011733;28;20423;-38
2022/07/05 10:21:37;;;;;;;2.75;0.80;;;;;;;29.50;36.30;102346.69;5011957;28;20141;-33
2022/07/05 10:24:26;;;;;;;4.22;0.90;;;;;;;29.47;36.50;102345.44;5012255;28;20056;-32
2022/07/05 10:26:55;;;;;;;2.58;0.88;;;;;;;29.42;36.58;102344.94;5011121;28;20052;-35
2022/07/05 10:29:23;;;;;;;2.45;0.70;;;;;;;29.29;36.49;102343.53;5011715;28;20411;-39
2022/07/05 10:31:51;;;;;;;3.08;0.60;;;;;;;29.32;36.46;102345.63;5011579;28;20042;-35
2022/07/05 10:34:20;;;;;;;3.45;0.93;;;;;;;29.31;36.43;102343.97;5011149;28;20433;-35
2022/07/05 10:37:08;;;;;;;2.20;0.52;;;;;;;29.28;37.07;102345.59;5011873;28;20093;-32
2022/07/05 10:39:36;;;;;;;3.38;0.65;;;;;;;29.31;36.61;102346.84;5012072;28;20048;-32
2022/07/05 10:42:06;;;;;;;2.40;0.70;;;;;;;29.05;36.77;102339.94;5010769;28;20052;-35
2022/07/05 10:44:35;;;;;;;3.33;0.63;;;;;;;28.83;36.95;102342.91;5011843;28;20050;-33
2022/07/05 10:47:11;;;;;;;3.15;0.82;;;;;;;28.71;37.60;102338.22;5011495;28;20050;-40
2022/07/05 10:49:42;;;;;;;3.28;0.60;;;;;;;28.92;38.09;102337.72;5012130;28;20069;-36
2022/07/05 10:52:23;;;;;;;1.83;0.70;;;;;;;29.22;36.85;102344.28;5011455;28;20041;-32
2022/07/05 10:55:20;;;;;;;2.47;0.52;;;;;;;29.20;36.27;102343.81;5011001;28;20056;-31
2022/07/05 10:58:20;;;;;;;3.33;1.00;;;;;;;29.06;36.41;102344.47;5011393;28;20052;-32
2022/07/05 11:00:49;;;;;;;3.33;0.80;;;;;;;28.93;37.02;102345.97;4993381;28;20054;-40
2022/07/05 11:03:33;;;;;;;2.40;0.70;;;;;;;28.63;36.73;102353.69;5007697;28;20038;-32
2022/07/05 11:06:04;;;;;;;2.30;0.60;;;;;;;28.31;37.56;102351.16;4993897;28;20527;-34
2022/07/05 11:09:10;;;;;;;2.40;0.70;;;;;;;28.20;37.10;102350.13;5006493;28;20407;-34
2022/07/05 11:11:41;;;;;;;2.80;0.55;;;;;;;28.15;37.45;102343.88;4997060;28;20045;-32
2022/07/05 11:14:31;;;;;;;3.72;0.93;;;;;;;28.42;37.70;102345.56;5011738;28;20137;-40
2022/07/05 11:17:16;;;;;;;3.00;0.85;;;;;;;28.80;36.83;102353.16;5010735;28;20046;-39
2022/07/05 11:20:10;;;;;;;2.50;0.60;;;;;;;28.95;36.69;102359.94;5000858;28;20682;-30
2022/07/05 11:22:42;;;;;;;2.55;0.60;;;;;;;28.86;36.73;102365.97;5010705;28;20042;-34
2022/07/05 11:25:11;;;;;;;1.48;0.50;;;;;;;28.59;37.00;102361.41;5011718;28;20045;-35
2022/07/05 11:28:05;;;;;;;2.40;0.65;;;;;;;28.08;36.08;102359.75;5011100;28;20389;-36
2022/07/05 11:30:55;;;;;;;2.92;0.50;;;;;;;27.81;38.25;102345.69;5001675;28;20053;-35
2022/07/05 11:33:35;;;;;;;1.95;0.65;;;;;;;27.85;38.58;102361.78;5011228;28;20410;-36
2022/07/05 11:36:04;;;;;;;2.72;0.75;;;;;;;28.00;38.46;102351.38;5010886;28;20137;-35
2022/07/05 11:38:34;;;;;;;3.05;0.70;;;;;;;28.13;38.43;102356.56;5010863;28;20046;-36
2022/07/05 11:41:22;;;;;;;2.78;0.80;;;;;;;28.15;38.56;102347.56;5015497;28;20053;-31
2022/07/05 11:43:57;;;;;;;3.08;0.77;;;;;;;28.29;38.81;102358.47;5013745;28;20033;-40
2022/07/05 11:46:26;;;;;;;1.42;0.52;;;;;;;28.41;38.56;102358.25;5015146;28;20495;-31
2022/07/05 11:49:20;;;;;;;3.08;0.80;;;;;;;28.42;38.15;102366.50;5013164;28;20033;-37